createdAt,value
2022-08-11T00:00:12.489Z,21.35
2022-08-11T00:01:12.460Z,21.44
2022-08-11T00:02:15.054Z,21.42
2022-08-11T00:03:12.492Z,21.44
2022-08-11T00:04:12.409Z,21.44
2022-08-11T00:05:12.392Z,21.43
2022-08-11T00:06:12.372Z,21.35
2022-08-11T00:07:12.356Z,21.43
2022-08-11T00:08:12.339Z,21.52
2022-08-11T00:09:12.321Z,21.52
2022-08-11T00:10:12.303Z,21.47
2022-08-11T00:11:12.287Z,21.40
2022-08-11T00:12:12.267Z,21.43
2022-08-11T00:13:13.297Z,21.42
2022-08-11T00:14:12.231Z,21.44
2022-08-11T00:15:12.224Z,21.38
2022-08-11T00:16:12.196Z,21.42
2022-08-11T00:17:12.184Z,21.46
2022-08-11T00:18:12.163Z,21.40
2022-08-11T00:19:12.146Z,21.40
2022-08-11T00:20:16.211Z,21.42
2022-08-11T00:21:12.109Z,21.47
2022-08-11T00:22:12.091Z,21.37
2022-08-11T00:23:12.074Z,21.43
2022-08-11T00:24:12.056Z,21.44
2022-08-11T00:25:12.154Z,21.44
2022-08-11T00:26:12.021Z,21.42
2022-08-11T00:27:14.310Z,21.32
2022-08-11T00:28:11.989Z,21.27
2022-08-11T00:29:11.972Z,21.35
2022-08-11T00:30:11.955Z,21.25
2022-08-11T00:31:11.933Z,21.22
2022-08-11T00:32:11.914Z,21.16
2022-08-11T00:33:11.895Z,21.16
2022-08-11T00:34:11.879Z,21.28
2022-08-11T00:35:53.645Z,21.16
2022-08-11T00:36:11.843Z,21.14
2022-08-11T00:37:11.825Z,21.16
2022-08-11T00:38:11.807Z,21.07
2022-08-11T00:39:11.842Z,20.97
2022-08-11T00:40:11.771Z,20.98
2022-08-11T00:41:11.756Z,21.06
2022-08-11T00:42:11.737Z,20.95
2022-08-11T00:43:11.722Z,20.95
2022-08-11T00:44:11.700Z,20.98
2022-08-11T00:45:11.683Z,20.98
2022-08-11T00:46:11.673Z,20.99
2022-08-11T00:47:11.649Z,20.99
2022-08-11T00:48:11.630Z,21.01
2022-08-11T00:49:12.028Z,21.06
2022-08-11T00:50:11.622Z,20.98
2022-08-11T00:51:11.598Z,21.03
2022-08-11T00:52:11.559Z,20.95
2022-08-11T00:53:11.541Z,21.04
2022-08-11T00:54:11.523Z,21.07
2022-08-11T00:55:11.505Z,21.10
2022-08-11T00:56:11.488Z,20.97
2022-08-11T00:57:36.914Z,20.98
2022-08-11T00:58:11.450Z,20.97
2022-08-11T00:59:21.111Z,20.92
2022-08-11T01:00:11.416Z,20.87
2022-08-11T01:01:11.580Z,20.85
2022-08-11T01:02:11.380Z,20.87
2022-08-11T01:03:11.363Z,20.88
2022-08-11T01:04:11.345Z,20.97
2022-08-11T01:05:11.327Z,21.03
2022-08-11T01:06:11.309Z,20.97
2022-08-11T01:07:11.293Z,21.01
2022-08-11T01:08:11.272Z,21.03
2022-08-11T01:09:22.526Z,20.99
2022-08-11T01:10:11.236Z,20.95
2022-08-11T01:11:11.219Z,21.07
2022-08-11T01:12:11.202Z,21.03
2022-08-11T01:13:11.183Z,21.07
2022-08-11T01:14:11.166Z,21.07
2022-08-11T01:15:11.147Z,20.99
2022-08-11T01:16:11.128Z,21.06
2022-08-11T01:17:11.112Z,21.01
2022-08-11T01:18:11.098Z,21.10
2022-08-11T01:19:11.079Z,21.01
2022-08-11T01:20:46.775Z,20.99
2022-08-11T01:21:11.038Z,20.95
2022-08-11T01:22:11.025Z,21.06
2022-08-11T01:23:12.512Z,20.98
2022-08-11T01:24:10.997Z,20.98
2022-08-11T01:25:10.969Z,20.94
2022-08-11T01:26:10.951Z,20.95
2022-08-11T01:27:19.193Z,20.97
2022-08-11T01:28:10.914Z,20.99
2022-08-11T01:29:10.894Z,20.92
2022-08-11T01:30:10.879Z,20.92
2022-08-11T01:31:10.873Z,20.82
2022-08-11T01:32:10.847Z,20.88
2022-08-11T01:33:10.828Z,20.89
2022-08-11T01:34:10.807Z,20.84
2022-08-11T01:35:10.788Z,20.79
2022-08-11T01:36:10.768Z,20.79
2022-08-11T01:37:10.752Z,20.80
2022-08-11T01:38:10.731Z,20.79
2022-08-11T01:39:10.772Z,20.79
2022-08-11T01:40:10.700Z,20.85
2022-08-11T01:41:10.693Z,20.73
2022-08-11T01:42:10.659Z,20.70
2022-08-11T01:43:10.642Z,20.66
2022-08-11T01:44:12.668Z,20.67
2022-08-11T01:45:10.613Z,20.67
2022-08-11T01:46:10.587Z,20.58
2022-08-11T01:47:10.571Z,20.55
2022-08-11T01:48:10.549Z,20.55
2022-08-11T01:50:06.693Z,20.61
2022-08-11T01:50:10.846Z,20.64
2022-08-11T01:51:16.956Z,20.62
2022-08-11T01:52:10.478Z,20.59
2022-08-11T01:53:10.461Z,20.52
2022-08-11T01:54:10.443Z,20.52
2022-08-11T01:55:10.424Z,20.52
2022-08-11T01:56:10.404Z,20.55
2022-08-11T01:57:10.395Z,20.42
2022-08-11T01:58:10.368Z,20.51
2022-08-11T01:59:10.351Z,20.51
2022-08-11T02:00:10.331Z,20.38
2022-08-11T02:01:10.371Z,20.33
2022-08-11T02:02:10.298Z,20.29
2022-08-11T02:03:10.278Z,20.18
2022-08-11T02:04:10.263Z,20.21
2022-08-11T02:05:10.242Z,20.16
2022-08-11T02:06:10.222Z,20.10
2022-08-11T02:07:10.214Z,19.96
2022-08-11T02:08:10.193Z,19.83
2022-08-11T02:09:10.168Z,19.65
2022-08-11T02:10:10.151Z,19.40
2022-08-11T02:11:10.133Z,19.40
2022-08-11T02:12:10.117Z,19.28
2022-08-11T02:13:10.093Z,19.16
2022-08-11T02:14:10.076Z,19.02
2022-08-11T02:15:10.057Z,18.94
2022-08-11T02:16:10.036Z,18.88
2022-08-11T02:17:10.020Z,18.90
2022-08-11T02:18:09.999Z,19.04
2022-08-11T02:19:09.986Z,19.07
2022-08-11T02:20:09.966Z,19.14
2022-08-11T02:21:09.945Z,19.18
2022-08-11T02:22:09.929Z,19.21
2022-08-11T02:23:09.909Z,19.32
2022-08-11T02:24:09.890Z,19.25
2022-08-11T02:25:09.874Z,19.36
2022-08-11T02:26:09.853Z,19.28
2022-08-11T02:27:09.835Z,19.25
2022-08-11T02:28:09.815Z,19.18
2022-08-11T02:29:09.797Z,18.99
2022-08-11T02:30:09.783Z,18.75
2022-08-11T02:31:09.762Z,18.50
2022-08-11T02:32:25.126Z,18.41
2022-08-11T02:33:09.722Z,18.21
2022-08-11T02:34:09.706Z,18.18
2022-08-11T02:35:09.687Z,18.12
2022-08-11T02:36:09.667Z,18.18
2022-08-11T02:37:09.649Z,18.15
2022-08-11T02:38:09.631Z,18.18
2022-08-11T02:39:09.685Z,18.30
2022-08-11T02:40:09.594Z,18.32
2022-08-11T02:41:09.574Z,18.32
2022-08-11T02:42:32.604Z,18.29
2022-08-11T02:43:09.540Z,18.36
2022-08-11T02:44:09.521Z,18.39
2022-08-11T02:45:09.500Z,18.39
2022-08-11T02:46:09.481Z,18.37
2022-08-11T02:47:09.461Z,18.45
2022-08-11T02:48:09.441Z,18.62
2022-08-11T02:49:09.423Z,18.57
2022-08-11T02:50:09.404Z,18.63
2022-08-11T02:51:09.390Z,18.65
2022-08-11T02:52:09.369Z,18.54
2022-08-11T02:53:09.353Z,18.62
2022-08-11T02:54:09.329Z,18.52
2022-08-11T02:55:09.312Z,18.51
2022-08-11T02:56:09.289Z,18.42
2022-08-11T02:57:11.251Z,18.48
2022-08-11T02:58:09.253Z,18.45
2022-08-11T02:59:09.237Z,18.50
2022-08-11T03:00:09.219Z,18.50
2022-08-11T03:01:09.198Z,18.47
2022-08-11T03:02:09.226Z,18.48
2022-08-11T03:03:09.161Z,18.42
2022-08-11T03:04:09.140Z,18.65
2022-08-11T03:05:09.130Z,18.65
2022-08-11T03:06:09.111Z,18.70
2022-08-11T03:07:28.831Z,18.78
2022-08-11T03:08:09.057Z,18.78
2022-08-11T03:09:09.046Z,18.90
2022-08-11T03:10:09.025Z,18.91
2022-08-11T03:11:09.009Z,18.88
2022-08-11T03:12:08.992Z,18.80
2022-08-11T03:13:08.970Z,18.63
2022-08-11T03:14:08.951Z,18.62
2022-08-11T03:15:08.935Z,18.72
2022-08-11T03:16:08.918Z,18.65
2022-08-11T03:17:08.896Z,18.62
2022-08-11T03:18:08.883Z,18.72
2022-08-11T03:19:08.858Z,18.76
2022-08-11T03:20:08.840Z,18.76
2022-08-11T03:21:08.819Z,18.62
2022-08-11T03:22:08.800Z,18.60
2022-08-11T03:23:19.978Z,18.69
2022-08-11T03:24:08.763Z,18.70
2022-08-11T03:25:12.759Z,18.76
2022-08-11T03:26:08.727Z,18.76
2022-08-11T03:27:08.705Z,18.81
2022-08-11T03:28:08.686Z,18.78
2022-08-11T03:29:08.667Z,18.92
2022-08-11T03:30:08.648Z,18.85
2022-08-11T03:31:08.632Z,18.91
2022-08-11T03:32:08.614Z,18.91
2022-08-11T03:33:08.592Z,18.92
2022-08-11T03:34:08.572Z,18.95
2022-08-11T03:35:08.556Z,18.94
2022-08-11T03:36:08.539Z,18.88
2022-08-11T03:37:17.550Z,18.88
2022-08-11T03:38:08.497Z,18.95
2022-08-11T03:39:08.540Z,18.92
2022-08-11T03:40:08.507Z,18.92
2022-08-11T03:42:01.203Z,18.88
2022-08-11T03:42:10.258Z,18.91
2022-08-11T03:43:08.405Z,18.92
2022-08-11T03:44:08.382Z,18.87
2022-08-11T03:45:08.364Z,18.91
2022-08-11T03:46:08.347Z,18.92
2022-08-11T03:47:08.328Z,18.95
2022-08-11T03:48:08.315Z,18.95
2022-08-11T03:49:08.288Z,18.95
2022-08-11T03:50:08.277Z,18.99
2022-08-11T03:51:08.250Z,19.00
2022-08-11T03:52:08.231Z,19.08
2022-08-11T03:53:08.216Z,19.08
2022-08-11T03:54:08.191Z,18.99
2022-08-11T03:55:08.178Z,19.10
2022-08-11T03:56:08.155Z,19.02
2022-08-11T03:57:08.135Z,19.06
2022-08-11T03:58:08.116Z,19.06
2022-08-11T03:59:08.097Z,19.08
2022-08-11T04:00:08.079Z,19.11
2022-08-11T04:01:08.223Z,19.13
2022-08-11T04:02:08.039Z,19.14
2022-08-11T04:03:08.023Z,19.22
2022-08-11T04:04:08.006Z,19.22
2022-08-11T04:05:07.986Z,19.14
2022-08-11T04:06:07.964Z,19.14
2022-08-11T04:07:07.951Z,19.16
2022-08-11T04:08:07.927Z,19.19
2022-08-11T04:09:07.909Z,19.14
2022-08-11T04:10:07.892Z,19.16
2022-08-11T04:11:07.881Z,19.22
2022-08-11T04:12:07.854Z,19.16
2022-08-11T04:13:07.834Z,19.23
2022-08-11T04:14:07.815Z,19.16
2022-08-11T04:15:07.794Z,19.21
2022-08-11T04:16:11.312Z,19.22
2022-08-11T04:17:07.761Z,19.19
2022-08-11T04:18:07.740Z,19.23
2022-08-11T04:19:07.720Z,19.25
2022-08-11T04:20:07.701Z,19.22
2022-08-11T04:21:07.681Z,19.18
2022-08-11T04:22:07.661Z,19.22
2022-08-11T04:23:07.642Z,19.25
2022-08-11T04:24:36.903Z,19.22
2022-08-11T04:25:07.607Z,19.18
2022-08-11T04:26:16.203Z,19.21
2022-08-11T04:27:08.200Z,19.22
2022-08-11T04:28:07.551Z,19.22
2022-08-11T04:29:09.496Z,19.25
2022-08-11T04:30:08.923Z,19.29
2022-08-11T04:31:07.490Z,19.22
2022-08-11T04:32:07.473Z,19.14
2022-08-11T04:33:07.453Z,19.19
2022-08-11T04:34:07.435Z,19.21
2022-08-11T04:35:07.414Z,19.21
2022-08-11T04:36:07.398Z,19.16
2022-08-11T04:37:07.376Z,19.14
2022-08-11T04:38:07.358Z,19.08
2022-08-11T04:39:07.360Z,19.10
2022-08-11T04:40:07.327Z,19.11
2022-08-11T04:41:07.309Z,19.14
2022-08-11T04:42:07.283Z,19.13
2022-08-11T04:43:07.265Z,19.06
2022-08-11T04:44:07.249Z,19.07
2022-08-11T04:45:07.226Z,19.18
2022-08-11T04:46:07.209Z,19.11
2022-08-11T04:47:07.187Z,19.19
2022-08-11T04:48:07.170Z,19.16
2022-08-11T04:49:07.154Z,19.23
2022-08-11T04:50:07.131Z,19.10
2022-08-11T04:51:16.328Z,19.16
2022-08-11T04:52:07.092Z,19.18
2022-08-11T04:53:07.070Z,19.13
2022-08-11T04:54:07.055Z,19.18
2022-08-11T04:55:07.034Z,19.21
2022-08-11T04:56:07.020Z,19.25
2022-08-11T04:57:06.999Z,19.19
2022-08-11T04:58:06.979Z,19.26
2022-08-11T04:59:06.963Z,19.22
2022-08-11T05:00:06.940Z,19.28
2022-08-11T05:01:06.996Z,19.22
2022-08-11T05:02:06.950Z,19.10
2022-08-11T05:03:06.884Z,19.21
2022-08-11T05:04:06.864Z,19.21
2022-08-11T05:05:06.843Z,19.22
2022-08-11T05:06:06.826Z,19.23
2022-08-11T05:07:06.811Z,19.31
2022-08-11T05:08:06.790Z,19.26
2022-08-11T05:09:06.768Z,19.26
2022-08-11T05:10:06.751Z,19.25
2022-08-11T05:11:06.743Z,19.31
2022-08-11T05:12:06.712Z,19.31
2022-08-11T05:13:06.701Z,19.28
2022-08-11T05:14:06.675Z,19.32
2022-08-11T05:15:06.653Z,19.33
2022-08-11T05:16:06.637Z,19.41
2022-08-11T05:17:06.617Z,19.41
2022-08-11T05:18:06.598Z,19.44
2022-08-11T05:19:06.577Z,19.28
2022-08-11T05:20:06.562Z,19.26
2022-08-11T05:21:06.541Z,19.28
2022-08-11T05:22:06.525Z,19.26
2022-08-11T05:23:06.503Z,19.32
2022-08-11T05:24:06.491Z,19.36
2022-08-11T05:25:06.463Z,19.31
2022-08-11T05:26:43.828Z,19.37
2022-08-11T05:27:11.369Z,19.41
2022-08-11T05:28:06.407Z,19.29
2022-08-11T05:29:20.006Z,19.37
2022-08-11T05:30:06.374Z,19.39
2022-08-11T05:31:06.354Z,19.46
2022-08-11T05:32:06.336Z,19.43
2022-08-11T05:33:06.319Z,19.47
2022-08-11T05:34:06.296Z,19.47
2022-08-11T05:35:06.275Z,19.58
2022-08-11T05:36:06.258Z,19.59
2022-08-11T05:37:25.821Z,19.63
2022-08-11T05:38:06.224Z,19.59
2022-08-11T05:39:06.199Z,19.71
2022-08-11T05:40:06.281Z,19.73
2022-08-11T05:41:06.160Z,19.71
2022-08-11T05:42:06.152Z,19.80
2022-08-11T05:43:06.185Z,19.81
2022-08-11T05:44:21.113Z,19.92
2022-08-11T05:45:15.209Z,19.94
2022-08-11T05:46:09.028Z,19.92
2022-08-11T05:47:06.049Z,19.91
2022-08-11T05:48:06.036Z,19.95
2022-08-11T05:49:06.015Z,19.98
2022-08-11T05:50:05.994Z,20.10
2022-08-11T05:51:10.366Z,20.10
2022-08-11T05:52:12.822Z,20.06
2022-08-11T05:53:09.345Z,20.10
2022-08-11T05:54:05.919Z,20.13
2022-08-11T05:55:06.979Z,20.13
2022-08-11T05:56:05.881Z,20.21
2022-08-11T05:57:05.865Z,20.23
2022-08-11T05:58:05.843Z,20.11
2022-08-11T05:59:05.822Z,20.31
2022-08-11T06:00:05.809Z,20.29
2022-08-11T06:01:05.811Z,20.33
2022-08-11T06:02:05.910Z,20.33
2022-08-11T06:03:05.748Z,20.33
2022-08-11T06:04:05.732Z,20.32
2022-08-11T06:05:05.712Z,20.42
2022-08-11T06:06:05.699Z,20.51
2022-08-11T06:07:05.680Z,20.41
2022-08-11T06:08:05.661Z,20.47
2022-08-11T06:09:05.635Z,20.57
2022-08-11T06:10:05.619Z,20.59
2022-08-11T06:11:05.601Z,20.58
2022-08-11T06:12:05.594Z,20.64
2022-08-11T06:13:05.561Z,20.72
2022-08-11T06:14:05.545Z,20.67
2022-08-11T06:15:05.528Z,20.64
2022-08-11T06:16:07.114Z,20.77
2022-08-11T06:17:05.490Z,20.79
2022-08-11T06:18:05.473Z,20.79
2022-08-11T06:19:05.450Z,20.80
2022-08-11T06:20:07.176Z,20.79
2022-08-11T06:21:05.414Z,20.80
2022-08-11T06:22:05.421Z,20.88
2022-08-11T06:23:05.383Z,20.88
2022-08-11T06:24:05.377Z,20.95
2022-08-11T06:25:05.347Z,21.03
2022-08-11T06:26:05.339Z,21.06
2022-08-11T06:27:13.728Z,20.97
2022-08-11T06:28:05.288Z,21.01
2022-08-11T06:29:05.264Z,21.06
2022-08-11T06:30:05.247Z,21.09
2022-08-11T06:31:05.226Z,21.09
2022-08-11T06:32:05.215Z,21.19
2022-08-11T06:33:05.210Z,21.13
2022-08-11T06:34:05.174Z,21.27
2022-08-11T06:35:05.153Z,21.24
2022-08-11T06:36:05.138Z,21.29
2022-08-11T06:37:05.144Z,21.42
2022-08-11T06:38:05.101Z,21.40
2022-08-11T06:39:05.081Z,21.47
2022-08-11T06:40:05.063Z,21.47
2022-08-11T06:41:05.044Z,21.49
2022-08-11T06:42:05.028Z,21.49
2022-08-11T06:43:05.007Z,21.65
2022-08-11T06:44:05.600Z,21.54
2022-08-11T06:45:04.981Z,21.56
2022-08-11T06:46:04.954Z,21.72
2022-08-11T06:47:04.934Z,21.69
2022-08-11T06:48:04.917Z,21.68
2022-08-11T06:49:04.897Z,21.75
2022-08-11T06:50:04.884Z,21.80
2022-08-11T06:51:04.863Z,21.88
2022-08-11T06:52:04.924Z,21.83
2022-08-11T06:53:04.827Z,21.96
2022-08-11T06:54:05.807Z,21.96
2022-08-11T06:55:04.788Z,21.90
2022-08-11T06:56:04.774Z,22.06
2022-08-11T06:58:04.785Z,21.99
2022-08-11T06:59:04.713Z,22.09
2022-08-11T07:00:04.706Z,22.15
2022-08-11T07:01:04.765Z,22.15
2022-08-11T07:02:04.670Z,22.22
2022-08-11T07:03:04.640Z,22.27
2022-08-11T07:04:04.624Z,22.25
2022-08-11T07:05:04.620Z,22.31
2022-08-11T07:06:04.589Z,22.43
2022-08-11T07:07:04.569Z,22.31
2022-08-11T07:08:34.273Z,22.45
2022-08-11T07:09:04.530Z,22.45
2022-08-11T07:10:04.523Z,22.49
2022-08-11T07:11:04.493Z,22.49
2022-08-11T07:12:04.482Z,22.58
2022-08-11T07:13:04.469Z,22.61
2022-08-11T07:14:04.447Z,22.62
2022-08-11T07:15:04.423Z,22.76
2022-08-11T07:16:11.386Z,22.82
2022-08-11T07:17:04.386Z,22.85
2022-08-11T07:18:04.373Z,22.91
2022-08-11T07:19:04.351Z,22.88
2022-08-11T07:20:04.334Z,22.97
2022-08-11T07:21:04.315Z,22.82
2022-08-11T07:22:04.402Z,22.94
2022-08-11T07:23:04.283Z,23.01
2022-08-11T07:24:04.261Z,23.02
2022-08-11T07:25:04.250Z,23.15
2022-08-11T07:26:04.231Z,23.15
2022-08-11T07:27:04.209Z,23.17
2022-08-11T07:28:04.196Z,23.20
2022-08-11T07:29:04.172Z,23.33
2022-08-11T07:30:04.154Z,23.40
2022-08-11T07:31:04.137Z,23.39
2022-08-11T07:32:04.118Z,23.40
2022-08-11T07:33:04.103Z,23.51
2022-08-11T07:34:06.463Z,23.57
2022-08-11T07:35:04.063Z,23.58
2022-08-11T07:36:04.049Z,23.53
2022-08-11T07:37:04.035Z,23.72
2022-08-11T07:38:05.662Z,23.70
2022-08-11T07:39:03.993Z,23.76
2022-08-11T07:40:03.986Z,23.83
2022-08-11T07:41:03.956Z,23.87
2022-08-11T07:42:03.940Z,23.91
2022-08-11T07:43:03.926Z,23.95
2022-08-11T07:44:03.909Z,23.94
2022-08-11T07:45:03.887Z,24.02
2022-08-11T07:46:03.869Z,24.06
2022-08-11T07:47:03.853Z,24.10
2022-08-11T07:48:03.836Z,24.22
2022-08-11T07:49:03.865Z,24.28
2022-08-11T07:50:03.802Z,24.22
2022-08-11T07:51:03.791Z,24.35
2022-08-11T07:52:03.765Z,24.37
2022-08-11T07:53:03.749Z,24.43
2022-08-11T07:54:07.731Z,24.49
2022-08-11T07:55:03.713Z,24.52
2022-08-11T07:56:03.698Z,24.60
2022-08-11T07:57:09.120Z,24.69
2022-08-11T07:58:16.663Z,24.80
2022-08-11T07:59:08.248Z,24.95
2022-08-11T08:00:05.074Z,24.83
2022-08-11T08:01:03.709Z,24.80
2022-08-11T08:02:03.734Z,24.91
2022-08-11T08:03:03.575Z,24.80
2022-08-11T08:04:03.562Z,24.90
2022-08-11T08:05:03.542Z,24.95
2022-08-11T08:06:03.527Z,25.02
2022-08-11T08:07:03.514Z,25.10
2022-08-11T08:08:03.498Z,25.24
2022-08-11T08:09:03.475Z,25.32
2022-08-11T08:10:03.466Z,25.38
2022-08-11T08:11:03.454Z,25.39
2022-08-11T08:12:03.433Z,25.42
2022-08-11T08:13:03.409Z,25.46
2022-08-11T08:14:03.402Z,25.42
2022-08-11T08:15:03.376Z,25.40
2022-08-11T08:16:03.372Z,25.43
2022-08-11T08:17:03.352Z,25.47
2022-08-11T08:18:20.921Z,25.50
2022-08-11T08:19:03.309Z,25.61
2022-08-11T08:20:03.295Z,25.65
2022-08-11T08:21:03.281Z,25.67
2022-08-11T08:22:37.433Z,25.72
2022-08-11T08:23:03.243Z,25.88
2022-08-11T08:24:03.229Z,25.83
2022-08-11T08:25:03.215Z,25.90
2022-08-11T08:26:03.200Z,25.83
2022-08-11T08:27:03.187Z,25.97
2022-08-11T08:28:03.165Z,26.01
2022-08-11T08:29:03.151Z,26.02
2022-08-11T08:30:03.130Z,26.10
2022-08-11T08:31:03.114Z,26.07
2022-08-11T08:32:03.099Z,26.21
2022-08-11T08:33:03.082Z,26.29
2022-08-11T08:34:03.068Z,26.30
2022-08-11T08:35:03.051Z,26.33
2022-08-11T08:36:03.036Z,26.29
2022-08-11T08:37:03.021Z,26.33
2022-08-11T08:38:03.002Z,26.23
2022-08-11T08:39:02.990Z,26.30
2022-08-11T08:40:02.975Z,26.25
2022-08-11T08:41:02.956Z,26.23
2022-08-11T08:42:02.939Z,26.32
2022-08-11T08:43:02.924Z,26.37
2022-08-11T08:44:27.817Z,26.33
2022-08-11T08:45:02.916Z,26.44
2022-08-11T08:46:02.875Z,26.47
2022-08-11T08:47:02.861Z,26.51
2022-08-11T08:48:02.846Z,26.58
2022-08-11T08:49:02.829Z,26.73
2022-08-11T08:50:02.814Z,26.75
2022-08-11T08:51:02.801Z,26.73
2022-08-11T08:52:29.655Z,26.75
2022-08-11T08:53:02.766Z,26.75
2022-08-11T08:54:02.749Z,26.76
2022-08-11T08:55:02.736Z,26.80
2022-08-11T08:56:02.720Z,26.80
2022-08-11T08:57:02.705Z,26.88
2022-08-11T08:58:02.688Z,26.97
2022-08-11T08:59:02.675Z,26.94
2022-08-11T09:00:02.658Z,26.99
2022-08-11T09:01:02.675Z,27.07
2022-08-11T09:02:02.627Z,27.10
2022-08-11T09:03:17.199Z,27.14
2022-08-11T09:04:10.567Z,27.13
2022-08-11T09:05:02.590Z,27.10
2022-08-11T09:06:02.566Z,27.21
2022-08-11T09:07:02.556Z,27.29
2022-08-11T09:08:02.539Z,27.34
2022-08-11T09:09:02.523Z,27.46
2022-08-11T09:10:02.505Z,27.43
2022-08-11T09:11:02.492Z,27.57
2022-08-11T09:12:02.475Z,27.65
2022-08-11T09:13:02.461Z,27.67
2022-08-11T09:14:03.295Z,27.67
2022-08-11T09:15:02.438Z,27.72
2022-08-11T09:16:02.418Z,27.81
2022-08-11T09:17:02.403Z,27.79
2022-08-11T09:18:02.388Z,27.75
2022-08-11T09:19:02.373Z,27.79
2022-08-11T09:20:02.447Z,27.92
2022-08-11T09:21:02.342Z,27.96
2022-08-11T09:22:02.328Z,27.92
2022-08-11T09:24:06.738Z,27.97
2022-08-11T09:25:02.283Z,27.99
2022-08-11T09:26:02.271Z,27.93
2022-08-11T09:27:02.253Z,27.92
2022-08-11T09:28:02.239Z,27.99
2022-08-11T09:29:02.223Z,28.03
2022-08-11T09:30:02.208Z,28.09
2022-08-11T09:31:02.208Z,28.04
2022-08-11T09:32:02.186Z,28.11
2022-08-11T09:33:02.169Z,28.04
2022-08-11T09:34:02.149Z,28.14
2022-08-11T09:35:02.137Z,28.03
2022-08-11T09:36:02.122Z,28.04
2022-08-11T09:37:02.107Z,28.09
2022-08-11T09:38:02.680Z,28.04
2022-08-11T09:39:02.079Z,28.11
2022-08-11T09:40:02.076Z,28.21
2022-08-11T09:41:02.048Z,28.25
2022-08-11T09:42:03.498Z,28.30
2022-08-11T09:43:02.021Z,28.33
2022-08-11T09:44:04.157Z,28.30
2022-08-11T09:45:02.101Z,28.39
2022-08-11T09:46:01.980Z,28.49
2022-08-11T09:47:01.966Z,28.52
2022-08-11T09:48:01.951Z,28.59
2022-08-11T09:49:01.937Z,28.62
2022-08-11T09:50:02.157Z,28.61
2022-08-11T09:51:01.907Z,28.59
2022-08-11T09:52:05.144Z,28.55
2022-08-11T09:53:34.775Z,28.67
2022-08-11T09:54:03.520Z,28.59
2022-08-11T09:55:01.852Z,28.67
2022-08-11T09:56:01.836Z,28.67
2022-08-11T09:57:05.186Z,28.67
2022-08-11T09:58:01.805Z,28.66
2022-08-11T09:59:01.806Z,28.71
2022-08-11T10:00:12.648Z,28.71
2022-08-11T10:01:01.856Z,28.71
2022-08-11T10:02:01.751Z,28.73
2022-08-11T10:03:01.740Z,28.81
2022-08-11T10:04:01.721Z,28.80
2022-08-11T10:05:01.713Z,28.92
2022-08-11T10:06:07.307Z,29.11
2022-08-11T10:07:01.683Z,29.12
2022-08-11T10:08:01.669Z,29.14
2022-08-11T10:09:01.659Z,29.05
2022-08-11T10:10:01.640Z,29.09
2022-08-11T10:11:01.627Z,28.92
2022-08-11T10:12:01.609Z,28.93
2022-08-11T10:13:01.610Z,29.00
2022-08-11T10:14:33.922Z,29.16
2022-08-11T10:15:01.568Z,29.14
2022-08-11T10:16:16.309Z,29.27
2022-08-11T10:17:01.540Z,29.31
2022-08-11T10:18:01.529Z,29.16
2022-08-11T10:19:01.515Z,29.11
2022-08-11T10:20:04.782Z,29.18
2022-08-11T10:21:01.487Z,29.08
2022-08-11T10:22:01.468Z,29.15
2022-08-11T10:23:01.459Z,29.05
2022-08-11T10:24:05.746Z,29.12
2022-08-11T10:25:01.430Z,29.14
2022-08-11T10:26:01.416Z,29.15
2022-08-11T10:27:01.406Z,29.19
2022-08-11T10:28:28.517Z,29.15
2022-08-11T10:29:12.552Z,29.28
2022-08-11T10:30:01.365Z,29.18
2022-08-11T10:31:01.350Z,29.05
2022-08-11T10:32:02.076Z,29.12
2022-08-11T10:33:01.320Z,29.11
2022-08-11T10:34:01.632Z,29.26
2022-08-11T10:35:01.303Z,29.30
2022-08-11T10:36:01.282Z,29.31
2022-08-11T10:37:01.265Z,29.26
2022-08-11T10:38:08.587Z,29.43
2022-08-11T10:39:01.236Z,29.49
2022-08-11T10:40:01.220Z,29.65
2022-08-11T10:41:01.210Z,29.55
2022-08-11T10:42:06.111Z,29.73
2022-08-11T10:43:01.492Z,29.76
2022-08-11T10:44:03.697Z,29.80
2022-08-11T10:45:01.158Z,29.85
2022-08-11T10:46:01.141Z,29.70
2022-08-11T10:47:01.126Z,29.73
2022-08-11T10:48:01.113Z,29.65
2022-08-11T10:49:01.105Z,29.65
2022-08-11T10:50:01.089Z,29.82
2022-08-11T10:51:01.075Z,29.57
2022-08-11T10:52:01.067Z,29.61
2022-08-11T10:53:01.046Z,29.58
2022-08-11T10:54:01.034Z,29.63
2022-08-11T10:55:01.022Z,29.68
2022-08-11T10:56:01.030Z,29.60
2022-08-11T10:57:00.989Z,29.79
2022-08-11T10:58:04.313Z,29.74
2022-08-11T10:59:03.990Z,29.85
2022-08-11T11:00:00.950Z,29.79
2022-08-11T11:01:00.982Z,29.90
2022-08-11T11:02:00.926Z,30.02
2022-08-11T11:03:16.846Z,29.89
2022-08-11T11:04:00.907Z,29.90
2022-08-11T11:05:00.883Z,29.92
2022-08-11T11:06:27.849Z,29.87
2022-08-11T11:07:00.855Z,29.87
2022-08-11T11:08:00.844Z,29.83
2022-08-11T11:09:04.069Z,29.86
2022-08-11T11:10:00.814Z,29.85
2022-08-11T11:11:00.801Z,29.64
2022-08-11T11:12:00.795Z,29.74
2022-08-11T11:13:00.784Z,29.90
2022-08-11T11:14:00.766Z,29.90
2022-08-11T11:15:00.747Z,29.86
2022-08-11T11:16:00.737Z,29.94
2022-08-11T11:17:00.724Z,29.82
2022-08-11T11:18:00.709Z,29.65
2022-08-11T11:19:01.453Z,29.82
2022-08-11T11:20:00.682Z,29.79
2022-08-11T11:21:00.677Z,29.86
2022-08-11T11:22:00.654Z,29.85
2022-08-11T11:23:00.646Z,29.89
2022-08-11T11:24:00.630Z,29.87
2022-08-11T11:25:00.627Z,29.82
2022-08-11T11:26:00.606Z,29.85
2022-08-11T11:27:00.591Z,29.90
2022-08-11T11:28:00.586Z,30.05
2022-08-11T11:29:00.568Z,30.02
2022-08-11T11:30:00.553Z,30.00
2022-08-11T11:31:00.546Z,29.98
2022-08-11T11:32:00.526Z,30.00
2022-08-11T11:33:00.521Z,29.95
2022-08-11T11:34:12.383Z,30.19
2022-08-11T11:35:00.488Z,30.49
2022-08-11T11:36:00.477Z,30.64
2022-08-11T11:37:00.468Z,30.72
2022-08-11T11:38:04.031Z,31.06
2022-08-11T11:39:00.436Z,30.94
2022-08-11T11:40:00.428Z,31.12
2022-08-11T11:41:00.412Z,31.06
2022-08-11T11:42:00.398Z,30.83
2022-08-11T11:43:00.406Z,30.95
2022-08-11T11:44:01.494Z,31.12
2022-08-11T11:45:01.439Z,31.21
2022-08-11T11:46:00.355Z,31.26
2022-08-11T11:47:00.338Z,31.50
2022-08-11T11:48:00.322Z,31.50
2022-08-11T11:49:00.310Z,31.43
2022-08-11T11:50:00.300Z,31.38
2022-08-11T11:51:00.295Z,31.19
2022-08-11T11:52:00.276Z,31.04
2022-08-11T11:53:00.264Z,30.89
2022-08-11T11:54:00.250Z,30.89
2022-08-11T11:55:00.247Z,30.69
2022-08-11T11:56:00.227Z,30.57
2022-08-11T11:57:00.216Z,30.42
2022-08-11T11:58:02.624Z,30.45
2022-08-11T11:59:00.194Z,30.38
2022-08-11T12:00:00.207Z,30.26
2022-08-11T12:01:00.170Z,30.43
2022-08-11T12:02:00.156Z,30.55
2022-08-11T12:03:00.238Z,30.62
2022-08-11T12:04:00.136Z,30.61
2022-08-11T12:05:00.121Z,30.49
2022-08-11T12:06:00.108Z,30.55
2022-08-11T12:07:00.099Z,30.65
2022-08-11T12:08:12.475Z,30.89
2022-08-11T12:09:00.082Z,31.02
2022-08-11T12:10:00.073Z,31.06
2022-08-11T12:11:00.050Z,31.29
2022-08-11T12:12:00.042Z,31.26
2022-08-11T12:13:00.026Z,31.06
2022-08-11T12:14:00.013Z,30.98
2022-08-11T12:15:00.003Z,30.94
2022-08-11T12:16:31.802Z,31.02
2022-08-11T12:16:59.977Z,30.82
2022-08-11T12:17:59.968Z,30.70
2022-08-11T12:18:59.963Z,30.65
2022-08-11T12:19:59.946Z,30.67
2022-08-11T12:20:59.930Z,30.79
2022-08-11T12:22:00.783Z,30.69
2022-08-11T12:22:59.912Z,30.80
2022-08-11T12:24:04.071Z,30.80
2022-08-11T12:24:59.885Z,30.76
2022-08-11T12:26:23.418Z,30.65
2022-08-11T12:27:15.801Z,30.80
2022-08-11T12:27:59.850Z,30.70
2022-08-11T12:28:59.836Z,30.55
2022-08-11T12:29:59.822Z,30.65
2022-08-11T12:30:59.812Z,30.77
2022-08-11T12:31:59.800Z,30.95
2022-08-11T12:32:59.788Z,30.97
2022-08-11T12:33:59.777Z,31.06
2022-08-11T12:34:59.770Z,31.04
2022-08-11T12:36:00.893Z,30.98
2022-08-11T12:36:59.742Z,30.99
2022-08-11T12:38:03.810Z,30.92
2022-08-11T12:38:59.720Z,31.02
2022-08-11T12:40:16.866Z,31.20
2022-08-11T12:41:16.297Z,31.46
2022-08-11T12:41:59.737Z,31.50
2022-08-11T12:42:59.674Z,31.57
2022-08-11T12:43:59.661Z,31.78
2022-08-11T12:44:59.649Z,31.95
2022-08-11T12:45:59.638Z,32.00
2022-08-11T12:46:59.631Z,32.08
2022-08-11T12:48:37.831Z,31.93
2022-08-11T12:49:02.159Z,31.54
2022-08-11T12:49:59.593Z,31.38
2022-08-11T12:50:59.577Z,31.28
2022-08-11T12:52:11.466Z,31.10
2022-08-11T12:52:59.559Z,30.92
2022-08-11T12:53:59.547Z,30.89